Time;durP1;ratioP1;P1;durP2;ratioP2;P2;SDS_P1;SDS_P2;PMS_P1;PMS_P2;Temp;Humidity;BMP_temperature;BMP_pressure;BME280_temperature;BME280_humidity;BME280_pressure;Samples;Min_cycle;Max_cycle;Signal;HPM_P1;HPM_P2
2023/03/11 00:03:24;;;;;;;8.80;5.10;;;;;;;-4.25;49.80;100163.97;10527096;28;20055;-78
2023/03/11 00:08:27;;;;;;;11.25;5.70;;;;;;;-4.89;50.67;100158.75;10526806;28;20065;-78
2023/03/11 00:13:29;;;;;;;9.50;5.25;;;;;;;-5.01;51.31;100179.88;10517765;28;20047;-78
2023/03/11 00:18:31;;;;;;;11.50;5.38;;;;;;;-5.04;51.97;100163.34;10523320;28;20044;-79
2023/03/11 00:23:34;;;;;;;11.35;5.20;;;;;;;-4.85;51.84;100162.72;10525282;28;20489;-78
2023/03/11 00:28:36;;;;;;;7.65;4.88;;;;;;;-5.17;51.63;100166.75;10486678;28;20080;-77
2023/03/11 00:33:38;;;;;;;9.00;4.90;;;;;;;-5.33;52.21;100165.13;10471615;28;20049;-77
2023/03/11 00:38:41;;;;;;;11.00;4.47;;;;;;;-5.49;52.73;100152.84;10476638;28;20513;-79
2023/03/11 00:43:43;;;;;;;9.40;5.38;;;;;;;-5.17;52.32;100161.41;10525592;28;20052;-78
2023/03/11 00:48:45;;;;;;;7.82;4.57;;;;;;;-5.25;52.06;100167.69;10480427;28;20045;-77
2023/03/11 00:53:47;;;;;;;9.65;5.53;;;;;;;-5.35;52.07;100156.47;10489609;28;20044;-78
2023/03/11 00:58:50;;;;;;;9.50;4.57;;;;;;;-5.22;51.70;100153.91;10524657;28;20457;-78
2023/03/11 01:03:52;;;;;;;9.25;4.85;;;;;;;-5.17;52.54;100151.53;10499485;28;20036;-78
2023/03/11 01:08:54;;;;;;;8.70;4.07;;;;;;;-5.51;52.18;100146.03;10505156;28;20497;-79
2023/03/11 01:13:57;;;;;;;5.88;4.03;;;;;;;-5.08;51.90;100144.19;10511444;28;20055;-79
2023/03/11 01:18:59;;;;;;;7.90;4.40;;;;;;;-5.39;51.84;100139.13;10514138;28;20515;-79
2023/03/11 01:24:02;;;;;;;10.85;4.57;;;;;;;-5.45;52.47;100147.94;10497186;28;20044;-80
2023/03/11 01:29:04;;;;;;;9.48;4.65;;;;;;;-6.23;52.88;100143.31;10521639;28;20401;-78
2023/03/11 01:34:06;;;;;;;8.90;4.85;;;;;;;-6.69;53.17;100143.47;10486284;28;20047;-78
2023/03/11 01:39:08;;;;;;;8.00;3.97;;;;;;;-6.83;54.49;100152.25;10493673;28;20036;-78
2023/03/11 01:44:11;;;;;;;6.07;4.05;;;;;;;-6.71;55.41;100142.81;10525427;28;20036;-78
2023/03/11 01:49:14;;;;;;;8.20;4.32;;;;;;;-6.59;55.15;100149.38;10481476;28;20115;-78
2023/03/11 01:54:23;;;;;;;9.10;4.50;;;;;;;-6.59;55.29;100151.22;10504168;28;20545;-79
2023/03/11 01:59:31;;;;;;;8.70;4.75;;;;;;;-7.01;54.94;100148.06;10523793;28;20060;-78
2023/03/11 02:04:35;;;;;;;7.65;4.03;;;;;;;-7.27;55.33;100136.97;10488994;28;20045;-80
2023/03/11 02:09:37;;;;;;;9.63;4.85;;;;;;;-6.03;54.37;100135.56;10468862;28;20068;-78
2023/03/11 02:14:43;;;;;;;8.57;4.57;;;;;;;-5.85;53.70;100126.09;10486779;28;20068;-78
2023/03/11 02:20:00;;;;;;;9.40;4.18;;;;;;;-6.65;53.36;100131.41;10522315;28;20045;-78
2023/03/11 02:25:09;;;;;;;8.53;4.37;;;;;;;-7.25;55.81;100134.13;10506524;28;20082;-79
2023/03/11 02:30:14;;;;;;;10.68;5.13;;;;;;;-7.46;54.96;100137.41;10519865;28;20044;-78
2023/03/11 02:35:19;;;;;;;12.30;5.70;;;;;;;-7.69;56.48;100132.91;10480511;28;20368;-79
2023/03/11 02:40:26;;;;;;;11.57;5.30;;;;;;;-8.31;57.90;100140.88;10480849;28;20044;-78
2023/03/11 02:45:31;;;;;;;11.48;5.22;;;;;;;-8.25;58.26;100137.50;10466443;28;20040;-78
2023/03/11 02:50:36;;;;;;;10.40;5.65;;;;;;;-8.38;57.70;100126.59;10506600;28;20044;-79
2023/03/11 02:55:38;;;;;;;12.82;5.85;;;;;;;-7.87;57.04;100129.69;10523560;28;20505;-78
2023/03/11 03:00:42;;;;;;;10.88;5.15;;;;;;;-8.77;58.54;100121.22;10503779;28;20409;-79
2023/03/11 03:05:45;;;;;;;12.95;7.13;;;;;;;-8.55;58.30;100127.66;10522690;28;20052;-77
2023/03/11 03:10:48;;;;;;;10.02;4.95;;;;;;;-8.85;59.07;100118.56;10513404;28;20060;-79
2023/03/11 03:15:50;;;;;;;11.82;6.13;;;;;;;-9.09;59.83;100119.44;10518620;28;20032;-80
2023/03/11 03:20:52;;;;;;;8.90;4.75;;;;;;;-9.60;59.80;100113.44;10497812;28;20044;-78
2023/03/11 03:25:55;;;;;;;10.02;5.28;;;;;;;-9.86;60.98;100116.25;10518365;28;20032;-77
2023/03/11 03:31:05;;;;;;;8.27;4.53;;;;;;;-10.13;62.01;100111.16;10531944;28;20485;-79
2023/03/11 03:36:10;;;;;;;8.73;4.75;;;;;;;-10.00;61.92;100094.78;10515942;28;20055;-79
2023/03/11 03:41:17;;;;;;;8.07;3.75;;;;;;;-9.87;61.12;100093.34;10505407;28;20044;-78
2023/03/11 03:46:20;;;;;;;7.88;4.65;;;;;;;-9.33;62.39;100095.53;10513219;28;20041;-79
2023/03/11 03:51:24;;;;;;;8.68;4.97;;;;;;;-8.70;60.47;100082.31;10506533;28;20051;-78
2023/03/11 03:56:41;;;;;;;10.05;5.63;;;;;;;-9.40;60.40;100089.22;10466257;28;20049;-78
2023/03/11 04:01:44;;;;;;;9.70;4.97;;;;;;;-9.68;61.47;100076.28;10492222;28;20501;-78
2023/03/11 04:06:46;;;;;;;9.75;5.18;;;;;;;-9.81;60.70;100066.13;10486741;28;20040;-79
2023/03/11 04:11:48;;;;;;;10.25;5.95;;;;;;;-9.99;61.29;100065.44;10527479;28;20142;-78
2023/03/11 04:16:52;;;;;;;8.40;4.55;;;;;;;-10.17;61.32;100062.91;10501293;28;20505;-79
2023/03/11 04:21:54;;;;;;;7.95;4.68;;;;;;;-10.45;61.58;100074.78;10512319;28;20053;-79
2023/03/11 04:26:59;;;;;;;9.10;4.55;;;;;;;-10.56;61.60;100077.72;10526278;28;20502;-79
2023/03/11 04:32:01;;;;;;;7.80;4.40;;;;;;;-10.33;62.39;100060.25;10513931;28;20047;-77
2023/03/11 04:37:05;;;;;;;7.38;3.83;;;;;;;-10.10;61.60;100050.66;10479547;28;20520;-79
2023/03/11 04:42:12;;;;;;;5.85;3.67;;;;;;;-10.14;61.53;100057.28;10488574;28;20041;-78
2023/03/11 04:47:16;;;;;;;7.40;4.38;;;;;;;-10.05;60.47;100044.88;10465653;28;20064;-78
2023/03/11 04:52:19;;;;;;;7.53;4.95;;;;;;;-9.53;59.68;100066.66;10497734;28;20048;-78
2023/03/11 04:57:21;;;;;;;9.60;4.28;;;;;;;-9.38;59.54;100064.16;10527126;28;20051;-79
2023/03/11 05:02:23;;;;;;;5.13;3.40;;;;;;;-9.04;59.40;100060.47;10488149;28;20044;-77
2023/03/11 05:07:30;;;;;;;10.00;4.10;;;;;;;-8.58;57.35;100065.00;10525538;28;20047;-78
2023/03/11 05:12:32;;;;;;;7.63;3.85;;;;;;;-8.35;58.04;100057.06;10499606;28;20048;-78
2023/03/11 05:17:34;;;;;;;7.65;4.45;;;;;;;-7.85;55.49;100058.44;10501717;28;20044;-79
2023/03/11 05:22:37;;;;;;;6.10;3.78;;;;;;;-7.82;55.25;100063.41;10504552;28;20037;-79
2023/03/11 05:27:40;;;;;;;7.30;4.35;;;;;;;-7.97;55.07;100055.38;10498723;28;20095;-78
2023/03/11 05:32:44;;;;;;;5.45;3.15;;;;;;;-8.04;54.54;100035.75;10510404;28;20058;-77
2023/03/11 05:37:48;;;;;;;7.78;4.45;;;;;;;-8.67;55.27;100031.47;10508392;28;20044;-78
2023/03/11 05:42:52;;;;;;;7.45;4.18;;;;;;;-8.59;55.26;100014.63;10502513;28;20499;-78
2023/03/11 05:47:54;;;;;;;6.88;3.85;;;;;;;-8.58;55.91;100005.66;10487451;28;20053;-79
2023/03/11 05:52:56;;;;;;;7.10;3.90;;;;;;;-8.69;55.01;100008.69;10502156;28;20398;-77
2023/03/11 05:57:59;;;;;;;8.00;4.30;;;;;;;-8.15;54.58;100000.75;10492309;28;20052;-79
2023/03/11 06:03:01;;;;;;;6.15;3.88;;;;;;;-7.73;54.10;99989.63;10494143;28;20032;-79
2023/03/11 06:08:04;;;;;;;7.15;4.25;;;;;;;-7.97;53.56;99991.47;10481627;28;21194;-79
2023/03/11 06:13:06;;;;;;;7.85;4.05;;;;;;;-7.64;53.33;99981.38;10523191;28;20490;-77
2023/03/11 06:18:12;;;;;;;8.55;5.20;;;;;;;-7.33;52.35;99980.41;10522455;28;20521;-77
2023/03/11 06:23:14;;;;;;;6.40;4.85;;;;;;;-7.07;52.72;99967.50;10491950;28;20044;-79
2023/03/11 06:28:18;;;;;;;6.20;4.20;;;;;;;-6.88;51.43;99975.97;10495730;28;20055;-79
2023/03/11 06:33:46;;;;;;;8.50;5.53;;;;;;;-6.90;51.06;99975.31;10502027;28;20508;-78
2023/03/11 06:38:51;;;;;;;6.63;4.35;;;;;;;-6.66;51.59;99953.66;10526614;28;20052;-78
2023/03/11 06:43:53;;;;;;;6.10;4.15;;;;;;;-6.26;50.53;99946.94;10509151;28;20047;-79
2023/03/11 06:48:56;;;;;;;6.93;4.47;;;;;;;-6.08;49.90;99950.00;10510978;28;20041;-79
2023/03/11 06:53:59;;;;;;;10.57;4.78;;;;;;;-6.11;49.24;99942.38;10508823;28;20524;-79
2023/03/11 06:59:02;;;;;;;6.18;3.45;;;;;;;-6.32;49.47;99933.53;10484445;28;20505;-79
2023/03/11 07:04:09;;;;;;;6.75;4.05;;;;;;;-6.25;49.87;99929.88;10495364;28;20033;-79
2023/03/11 07:09:13;;;;;;;6.32;3.85;;;;;;;-5.75;49.90;99906.69;10502953;28;20103;-78
2023/03/11 07:14:18;;;;;;;5.53;3.78;;;;;;;-5.25;48.81;99902.94;10503025;28;20043;-79
2023/03/11 07:19:24;;;;;;;9.38;4.65;;;;;;;-4.87;47.79;99902.50;10508156;28;20052;-78
2023/03/11 07:24:27;;;;;;;7.22;4.15;;;;;;;-4.16;47.20;99870.00;10517350;28;20040;-79
2023/03/11 07:29:29;;;;;;;9.13;4.53;;;;;;;-3.71;47.45;99865.66;10505506;28;20509;-79
2023/03/11 07:34:31;;;;;;;6.82;4.40;;;;;;;-2.99;45.24;99866.53;10521120;28;20045;-78
2023/03/11 07:39:34;;;;;;;8.63;4.78;;;;;;;-3.18;45.64;99858.34;10529968;28;20063;-80
2023/03/11 07:44:36;;;;;;;8.43;5.43;;;;;;;-3.32;45.71;99854.03;10505556;28;20044;-79
2023/03/11 07:49:38;;;;;;;4.70;3.88;;;;;;;-3.36;45.89;99831.34;10509748;28;20543;-83
2023/03/11 07:54:40;;;;;;;4.32;2.85;;;;;;;-3.29;45.96;99834.03;10510562;28;20040;-81
2023/03/11 07:59:43;;;;;;;4.05;3.00;;;;;;;-2.97;46.27;99835.75;10520976;28;20036;-80
2023/03/11 08:04:45;;;;;;;3.13;2.10;;;;;;;-2.32;45.24;99833.75;10542255;28;20047;-80
2023/03/11 08:09:49;;;;;;;8.55;3.45;;;;;;;-2.49;44.83;99808.44;10544473;28;20063;-79
2023/03/11 08:14:51;;;;;;;5.40;3.08;;;;;;;-2.80;45.89;99799.34;10549178;28;20040;-79
2023/03/11 08:19:54;;;;;;;6.40;3.08;;;;;;;-2.39;44.92;99795.38;10536592;28;20040;-78
2023/03/11 08:24:56;;;;;;;5.68;3.17;;;;;;;-2.44;44.93;99773.69;10507962;28;20044;-80
2023/03/11 08:29:58;;;;;;;7.88;3.40;;;;;;;-2.74;44.97;99770.81;10514767;28;20468;-81
2023/03/11 08:35:01;;;;;;;4.38;2.85;;;;;;;-3.37;46.19;99749.25;10513058;28;20056;-80
2023/03/11 08:40:04;;;;;;;4.60;2.50;;;;;;;-3.36;46.52;99740.16;10513322;28;20083;-78
2023/03/11 08:45:07;;;;;;;3.20;2.30;;;;;;;-3.22;46.29;99717.59;10518638;28;20067;-79
2023/03/11 08:50:17;;;;;;;3.70;2.45;;;;;;;-3.89;46.79;99718.88;10497604;28;20048;-78
2023/03/11 08:55:23;;;;;;;3.00;2.30;;;;;;;-3.92;46.76;99711.25;10475282;28;20532;-79
2023/03/11 09:00:30;;;;;;;2.80;1.98;;;;;;;-3.36;46.49;99681.16;10504976;28;20032;-79
2023/03/11 09:05:32;;;;;;;3.60;1.90;;;;;;;-3.06;45.24;99676.03;10522367;28;20520;-79
2023/03/11 09:10:35;;;;;;;3.05;2.17;;;;;;;-3.17;44.93;99661.44;10522861;28;20485;-79
2023/03/11 09:15:38;;;;;;;3.25;2.13;;;;;;;-3.11;44.84;99649.03;10521661;28;20040;-79
2023/03/11 09:20:42;;;;;;;2.92;1.67;;;;;;;-3.37;44.78;99625.88;10509900;28;20040;-79
2023/03/11 09:25:44;;;;;;;1.38;1.27;;;;;;;-3.37;44.52;99618.63;10512856;28;20044;-78
2023/03/11 09:30:46;;;;;;;3.47;2.08;;;;;;;-3.46;44.33;99603.84;10525091;28;20038;-78
2023/03/11 09:35:48;;;;;;;2.55;1.73;;;;;;;-3.56;44.31;99606.16;10529976;28;20032;-79
2023/03/11 09:41:03;;;;;;;2.28;1.80;;;;;;;-3.38;44.55;99592.84;10518677;28;20047;-79
2023/03/11 09:46:31;;;;;;;1.42;1.13;;;;;;;-3.40;43.96;99573.47;10483827;28;20048;-79
2023/03/11 09:51:37;;;;;;;2.60;1.55;;;;;;;-3.46;43.77;99541.34;10491069;28;20040;-79
2023/03/11 09:56:41;;;;;;;2.20;1.63;;;;;;;-3.46;43.68;99541.34;10519347;28;20055;-78
2023/03/11 10:01:45;;;;;;;1.20;1.10;;;;;;;-3.58;43.71;99545.75;10502858;28;20040;-78
2023/03/11 10:06:54;;;;;;;2.80;1.48;;;;;;;-3.60;43.51;99519.16;10518836;28;20049;-77
2023/03/11 10:12:18;;;;;;;2.20;1.45;;;;;;;-3.51;43.45;99499.06;10509568;28;20056;-79
2023/03/11 10:17:35;;;;;;;1.60;1.05;;;;;;;-3.44;42.49;99493.69;10522580;28;20047;-78
2023/03/11 10:22:43;;;;;;;1.83;1.50;;;;;;;-3.49;42.72;99475.53;10517743;28;20052;-82
2023/03/11 10:27:54;;;;;;;2.00;1.10;;;;;;;-3.51;43.30;99448.13;10502850;28;20067;-79
2023/03/11 10:33:04;;;;;;;0.90;0.80;;;;;;;-3.47;43.20;99440.47;10492108;28;20047;-80
2023/03/11 10:38:15;;;;;;;2.05;1.27;;;;;;;-3.38;43.03;99439.97;10530600;28;20045;-80
2023/03/11 10:43:37;;;;;;;4.53;1.55;;;;;;;-3.15;43.16;99441.22;10534428;28;20037;-79
2023/03/11 10:48:40;;;;;;;2.58;1.60;;;;;;;-2.91;42.77;99440.34;10516723;28;20525;-79
2023/03/11 10:53:48;;;;;;;2.58;1.00;;;;;;;-2.68;43.21;99390.53;10510366;28;20037;-78
2023/03/11 10:58:50;;;;;;;4.03;2.35;;;;;;;-2.58;43.68;99388.13;10516718;28;20497;-80
2023/03/11 11:03:54;;;;;;;4.28;2.13;;;;;;;-2.67;43.59;99370.69;10534373;28;20056;-78
2023/03/11 11:09:18;;;;;;;1.90;1.30;;;;;;;-2.89;42.53;99344.31;10504627;28;20060;-80
2023/03/11 11:14:21;;;;;;;2.75;1.63;;;;;;;-3.02;43.24;99331.06;10508636;28;20041;-80
2023/03/11 11:19:23;;;;;;;3.67;2.30;;;;;;;-3.03;43.65;99345.53;10505331;28;20406;-79
2023/03/11 11:24:30;;;;;;;2.63;1.75;;;;;;;-3.10;44.20;99299.19;10502773;28;20044;-81
2023/03/11 11:29:33;;;;;;;2.78;1.30;;;;;;;-3.13;44.58;99286.19;10525277;28;20339;-79
2023/03/11 11:34:35;;;;;;;2.22;2.03;;;;;;;-3.21;45.78;99276.59;10512925;28;20044;-80
2023/03/11 11:40:13;;;;;;;3.22;1.70;;;;;;;-3.26;46.19;99243.47;10490352;28;20045;-79
2023/03/11 11:45:30;;;;;;;2.13;1.83;;;;;;;-3.29;46.61;99242.06;10499919;28;20056;-80
2023/03/11 11:50:42;;;;;;;;;;;;;;;-3.26;47.13;99251.50;10489580;28;20041;-80
2023/03/11 11:55:48;;;;;;;3.35;2.22;;;;;;;-3.34;48.42;99202.47;10500049;28;20271;-80
2023/03/11 12:01:14;;;;;;;3.72;2.00;;;;;;;-3.42;48.96;99196.63;10506151;28;20033;-79
2023/03/11 12:06:31;;;;;;;5.85;1.83;;;;;;;-3.57;49.79;99183.59;10492594;28;20041;-77
2023/03/11 12:11:48;;;;;;;4.25;1.55;;;;;;;-3.71;50.94;99174.88;10489524;28;20078;-78
2023/03/11 12:17:01;;;;;;;2.05;1.58;;;;;;;-3.74;51.58;99183.38;10488532;28;20497;-79
2023/03/11 12:22:03;;;;;;;1.38;1.27;;;;;;;-3.87;52.37;99137.16;10529308;28;20048;-78
2023/03/11 12:27:14;;;;;;;2.22;1.73;;;;;;;-3.91;52.61;99125.25;10508022;28;20413;-79
2023/03/11 12:32:29;;;;;;;3.05;1.75;;;;;;;-3.97;53.31;99113.59;10526470;28;20067;-78
2023/03/11 12:37:31;;;;;;;2.97;2.45;;;;;;;-4.01;53.04;99121.22;10520152;28;20044;-79
2023/03/11 12:42:40;;;;;;;5.82;2.17;;;;;;;-3.99;53.99;99107.63;10526909;28;20044;-79
2023/03/11 12:47:42;;;;;;;;;;;;;;;-4.02;53.63;99102.69;10527088;28;20041;-79
2023/03/11 12:52:53;;;;;;;2.42;2.05;;;;;;;-4.09;54.17;99081.38;10518766;28;19920;-79
2023/03/11 12:58:25;;;;;;;3.17;2.08;;;;;;;-4.13;54.24;99053.41;10523750;28;20051;-79
2023/03/11 13:03:30;;;;;;;1.67;1.40;;;;;;;-4.12;54.44;99067.59;10527623;28;20494;-77
2023/03/11 13:08:48;;;;;;;3.33;1.65;;;;;;;-4.13;55.16;99029.28;10484520;28;21247;-78
2023/03/11 13:13:50;;;;;;;2.75;1.92;;;;;;;-4.18;55.20;99031.81;10481140;28;20538;-77
2023/03/11 13:18:53;;;;;;;2.58;1.20;;;;;;;-4.21;55.39;99012.69;10495680;28;20559;-78
2023/03/11 13:24:18;;;;;;;1.52;1.42;;;;;;;-4.25;55.65;99001.63;10507795;28;20055;-78
2023/03/11 13:29:59;;;;;;;0.82;0.45;;;;;;;-4.27;56.13;98960.88;10501416;28;20051;-81
2023/03/11 13:35:32;;;;;;;1.48;1.15;;;;;;;-4.26;56.80;98966.00;10505432;28;20059;-83
2023/03/11 13:40:39;;;;;;;2.90;1.95;;;;;;;-4.28;56.86;98956.56;10467695;28;20058;-82
2023/03/11 13:45:47;;;;;;;1.40;1.27;;;;;;;-4.28;57.80;98930.59;10480131;28;20048;-79
2023/03/11 13:50:54;;;;;;;0.80;0.80;;;;;;;-4.30;57.92;98911.28;10500836;28;20044;-78
2023/03/11 13:55:56;;;;;;;2.38;1.30;;;;;;;-4.30;58.46;98918.50;10479594;28;21023;-80
2023/03/11 14:01:00;;;;;;;2.08;1.88;;;;;;;-4.29;59.19;98896.03;10524680;28;20054;-80
2023/03/11 14:06:07;;;;;;;2.72;2.25;;;;;;;-4.31;59.65;98898.13;10507206;28;20036;-78
2023/03/11 14:11:10;;;;;;;3.90;1.67;;;;;;;-4.33;61.01;98903.69;10519307;28;20049;-79
2023/03/11 14:16:16;;;;;;;0.75;0.75;;;;;;;-4.37;62.33;98896.31;10514597;28;20402;-79
2023/03/11 14:21:20;;;;;;;4.18;1.33;;;;;;;-4.47;64.16;98894.22;10500837;28;20032;-80
2023/03/11 14:26:33;;;;;;;3.33;1.40;;;;;;;-4.63;65.48;98870.75;10511528;28;20043;-83
2023/03/11 14:31:38;;;;;;;3.17;1.75;;;;;;;-4.73;68.31;98890.00;10487161;28;20059;-78
2023/03/11 14:36:55;;;;;;;2.00;1.50;;;;;;;-5.09;76.10;98865.97;10494877;28;20041;-79
2023/03/11 14:42:06;;;;;;;3.45;2.50;;;;;;;-5.42;81.19;98848.44;10491325;28;20497;-80
2023/03/11 14:47:44;;;;;;;2.42;2.05;;;;;;;-5.58;83.09;98851.69;10495658;28;20427;-80
2023/03/11 14:52:47;;;;;;;3.37;1.13;;;;;;;-5.66;84.87;98830.59;10508765;28;20135;-80
2023/03/11 14:58:02;;;;;;;2.00;1.40;;;;;;;-5.75;86.57;98800.66;10502486;28;20040;-81
2023/03/11 15:03:21;;;;;;;2.08;1.48;;;;;;;-5.85;88.13;98795.84;10499163;28;20052;-83
2023/03/11 15:08:26;;;;;;;0.40;0.40;;;;;;;-5.84;89.27;98768.09;10511360;28;20051;-83
2023/03/11 15:13:28;;;;;;;2.13;1.83;;;;;;;-5.82;89.83;98771.38;10478371;28;20107;-84
2023/03/11 15:18:41;;;;;;;4.03;1.73;;;;;;;-5.84;90.76;98740.59;10498465;28;20490;-81
2023/03/11 15:23:49;;;;;;;2.38;1.27;;;;;;;-5.84;91.09;98714.69;10494009;28;20081;-83
2023/03/11 15:29:02;;;;;;;3.13;1.50;;;;;;;-5.82;91.08;98717.13;10498834;28;20032;-82
2023/03/11 15:34:15;;;;;;;3.60;0.85;;;;;;;-5.85;91.80;98702.38;10497374;28;20502;-81
2023/03/11 15:39:29;;;;;;;1.75;0.80;;;;;;;-5.84;92.10;98695.19;10514409;28;20045;-82
2023/03/11 15:44:31;;;;;;;3.08;2.13;;;;;;;-5.84;92.08;98687.97;10514903;28;20064;-81
2023/03/11 15:49:33;;;;;;;6.30;1.52;;;;;;;-5.79;92.78;98664.09;10521253;28;20040;-80
2023/03/11 15:54:36;;;;;;;2.83;0.95;;;;;;;-5.78;92.83;98660.38;10488920;28;20044;-79
2023/03/11 15:59:40;;;;;;;0.57;0.57;;;;;;;-5.77;93.06;98653.97;10503249;28;20044;-79
2023/03/11 16:04:42;;;;;;;3.22;1.50;;;;;;;-5.77;93.74;98642.47;10520182;28;20060;-79
2023/03/11 16:09:44;;;;;;;0.52;0.43;;;;;;;-5.74;93.78;98633.19;10505713;28;20048;-79
2023/03/11 16:14:47;;;;;;;2.83;1.63;;;;;;;-5.75;94.10;98616.38;10495042;28;20490;-79
2023/03/11 16:19:49;;;;;;;3.55;1.85;;;;;;;-5.76;94.54;98610.22;10501925;28;20048;-79
2023/03/11 16:24:52;;;;;;;1.90;1.13;;;;;;;-5.73;95.17;98597.44;10517443;28;20052;-80
2023/03/11 16:29:54;;;;;;;2.33;1.45;;;;;;;-5.73;95.25;98570.72;10524941;28;20078;-80
2023/03/11 16:34:57;;;;;;;2.00;1.20;;;;;;;-5.73;96.16;98578.72;10528428;28;20036;-79
2023/03/11 16:39:59;;;;;;;2.67;1.05;;;;;;;-5.76;96.09;98561.31;10517715;28;20048;-79
2023/03/11 16:45:02;;;;;;;1.85;0.70;;;;;;;-5.72;96.28;98535.00;10500193;28;20048;-80
2023/03/11 16:50:04;;;;;;;1.23;0.80;;;;;;;-5.72;96.97;98537.66;10521101;28;20040;-81
2023/03/11 16:55:07;;;;;;;1.42;0.93;;;;;;;-5.72;96.96;98540.34;10508001;28;20036;-81
2023/03/11 17:00:10;;;;;;;0.65;0.65;;;;;;;-5.73;97.80;98506.63;10494638;28;20040;-78
2023/03/11 17:05:12;;;;;;;0.55;0.52;;;;;;;-5.69;97.30;98494.47;10490563;28;20430;-79
2023/03/11 17:10:14;;;;;;;0.80;0.73;;;;;;;-5.66;98.15;98485.97;10521181;28;20059;-79
2023/03/11 17:15:16;;;;;;;3.53;1.80;;;;;;;-5.62;98.36;98476.47;10483646;28;20040;-80
2023/03/11 17:20:19;;;;;;;5.22;1.15;;;;;;;-5.61;98.35;98464.72;10510853;28;20033;-80
2023/03/11 17:25:21;;;;;;;1.38;1.00;;;;;;;-5.60;98.28;98463.69;10488664;28;20512;-80
2023/03/11 17:30:24;;;;;;;1.38;1.10;;;;;;;-5.59;98.00;98457.28;10489960;28;20044;-81
2023/03/11 17:35:27;;;;;;;2.10;1.10;;;;;;;-5.60;97.71;98453.81;10486910;28;20517;-77
2023/03/11 17:40:31;;;;;;;2.00;1.50;;;;;;;-5.58;98.17;98461.59;10508937;28;20048;-82
2023/03/11 17:45:33;;;;;;;1.13;1.02;;;;;;;-5.56;98.19;98427.44;10516226;28;20497;-80
2023/03/11 17:50:39;;;;;;;0.45;0.45;;;;;;;-5.55;98.86;98415.72;10497892;28;20040;-79
2023/03/11 17:55:41;;;;;;;2.58;1.65;;;;;;;-5.52;98.55;98401.91;10487230;28;20045;-81
2023/03/11 18:00:45;;;;;;;2.60;1.15;;;;;;;-5.52;98.37;98402.72;10500762;28;20056;-82
2023/03/11 18:05:57;;;;;;;1.02;0.90;;;;;;;-5.51;97.94;98380.28;10480462;28;20060;-79
2023/03/11 18:11:04;;;;;;;0.90;0.90;;;;;;;-5.50;98.19;98365.06;10497882;28;20052;-81
2023/03/11 18:16:27;;;;;;;2.00;1.23;;;;;;;-5.48;98.75;98373.66;10486874;28;20047;-81
2023/03/11 18:21:30;;;;;;;0.65;0.65;;;;;;;-5.48;98.76;98353.09;10506106;28;20039;-82
2023/03/11 18:26:32;;;;;;;2.65;1.08;;;;;;;-5.44;98.78;98350.75;10499721;28;20036;-83
2023/03/11 18:31:34;;;;;;;0.90;0.73;;;;;;;-5.46;98.70;98368.91;10462298;28;20040;-80
2023/03/11 18:36:36;;;;;;;4.38;0.70;;;;;;;-5.47;98.09;98336.03;10500237;28;20075;-82
2023/03/11 18:41:39;;;;;;;2.13;1.25;;;;;;;-5.45;97.96;98335.78;10496812;28;20049;-79
2023/03/11 18:46:42;;;;;;;1.77;1.20;;;;;;;-5.43;97.96;98325.66;10496675;28;20126;-78
2023/03/11 18:51:45;;;;;;;1.50;1.40;;;;;;;-5.41;98.08;98312.88;10509292;28;20602;-81
2023/03/11 18:56:47;;;;;;;2.75;1.48;;;;;;;-5.39;97.97;98316.13;10468383;28;20275;-81
2023/03/11 19:01:49;;;;;;;4.70;0.85;;;;;;;-5.37;98.21;98313.25;10507739;28;20046;-83
2023/03/11 19:06:52;;;;;;;0.30;0.30;;;;;;;-5.35;97.73;98292.44;10497930;28;20424;-82
2023/03/11 19:11:54;;;;;;;3.15;1.42;;;;;;;-5.32;97.34;98284.75;10498007;28;20054;-82
2023/03/11 19:16:56;;;;;;;2.47;1.55;;;;;;;-5.28;97.35;98288.56;10483583;28;20045;-81
2023/03/11 19:21:58;;;;;;;0.77;0.77;;;;;;;-5.26;97.38;98274.97;10496065;28;20047;-83
2023/03/11 19:27:00;;;;;;;2.42;1.70;;;;;;;-5.26;97.51;98257.06;10490987;28;20051;-80
2023/03/11 19:32:03;;;;;;;0.73;0.73;;;;;;;-5.23;97.37;98253.09;10521508;28;20052;-80
2023/03/11 19:37:06;;;;;;;4.25;1.95;;;;;;;-5.19;97.46;98252.41;10512412;28;20066;-81
2023/03/11 19:42:08;;;;;;;3.22;2.17;;;;;;;-5.14;97.67;98240.19;10491538;28;20052;-82
2023/03/11 19:47:10;;;;;;;3.78;2.20;;;;;;;-5.12;97.64;98235.41;10498947;28;20037;-79
2023/03/11 19:52:14;;;;;;;3.45;1.80;;;;;;;-5.08;97.25;98225.84;10513932;28;20041;-78
2023/03/11 19:57:16;;;;;;;2.50;1.92;;;;;;;-5.07;97.74;98216.78;10518789;28;20052;-79
2023/03/11 20:02:18;;;;;;;6.85;2.83;;;;;;;-5.03;97.93;98207.22;10508401;28;20043;-82
2023/03/11 20:07:20;;;;;;;4.10;2.42;;;;;;;-4.99;97.31;98187.81;10484795;28;20047;-82
2023/03/11 20:12:22;;;;;;;3.72;2.60;;;;;;;-4.96;97.82;98191.84;10502714;28;20497;-83
2023/03/11 20:17:25;;;;;;;4.28;2.15;;;;;;;-4.95;97.58;98182.78;10491836;28;20043;-81
2023/03/11 20:22:27;;;;;;;3.47;2.13;;;;;;;-4.92;97.66;98182.28;10501826;28;20045;-81
2023/03/11 20:27:29;;;;;;;2.30;1.63;;;;;;;-4.90;97.55;98169.47;10489133;28;20048;-81
2023/03/11 20:32:31;;;;;;;7.50;2.35;;;;;;;-4.89;97.88;98163.88;10520131;28;20044;-79
2023/03/11 20:37:33;;;;;;;6.90;2.97;;;;;;;-4.85;98.20;98158.91;10506931;28;20048;-80
2023/03/11 20:42:36;;;;;;;2.58;2.22;;;;;;;-4.81;98.14;98157.34;10517184;28;20056;-82
2023/03/11 20:47:38;;;;;;;3.50;3.03;;;;;;;-4.82;98.36;98150.38;10528522;28;20058;-79
2023/03/11 20:52:40;;;;;;;4.25;2.33;;;;;;;-4.79;97.73;98143.72;10505370;28;20045;-81
2023/03/11 20:57:42;;;;;;;4.50;2.72;;;;;;;-4.78;98.19;98140.00;10517728;28;20040;-80
2023/03/11 21:02:44;;;;;;;4.30;2.08;;;;;;;-4.76;98.18;98127.19;10499117;28;20040;-81
2023/03/11 21:07:47;;;;;;;2.92;2.40;;;;;;;-4.73;98.43;98119.47;10497771;28;20048;-80
2023/03/11 21:12:50;;;;;;;6.07;4.00;;;;;;;-4.73;98.32;98106.09;10501231;28;20047;-79
2023/03/11 21:17:52;;;;;;;5.80;4.22;;;;;;;-4.71;98.15;98093.28;10527279;28;20397;-80
2023/03/11 21:22:54;;;;;;;6.35;4.40;;;;;;;-4.70;98.72;98092.22;10515949;28;20131;-80
2023/03/11 21:27:56;;;;;;;7.03;4.60;;;;;;;-4.67;98.58;98091.75;10518338;28;20044;-81
2023/03/11 21:32:58;;;;;;;6.32;4.60;;;;;;;-4.63;98.57;98084.84;10509805;28;20493;-80
2023/03/11 21:38:00;;;;;;;10.10;5.18;;;;;;;-4.59;98.48;98085.16;10525764;28;20127;-78
2023/03/11 21:43:03;;;;;;;6.43;4.80;;;;;;;-4.56;98.34;98077.44;10506064;28;20410;-78
2023/03/11 21:48:07;;;;;;;8.80;5.30;;;;;;;-4.53;98.92;98070.00;10511021;28;20642;-78
2023/03/11 21:53:10;;;;;;;8.18;4.88;;;;;;;-4.49;98.72;98061.25;10494441;28;20044;-78
2023/03/11 21:58:13;;;;;;;7.35;5.18;;;;;;;-4.48;98.75;98059.38;10516518;28;20037;-76
2023/03/11 22:03:15;;;;;;;8.40;5.85;;;;;;;-4.46;98.77;98058.06;10512439;28;20051;-78
2023/03/11 22:08:17;;;;;;;10.55;5.18;;;;;;;-4.44;99.12;98047.91;10525952;28;20053;-78
2023/03/11 22:13:20;;;;;;;6.40;4.45;;;;;;;-4.41;98.99;98033.22;10528283;28;20421;-77
2023/03/11 22:18:22;;;;;;;7.88;5.10;;;;;;;-4.39;98.65;98031.91;10506579;28;20036;-77
2023/03/11 22:23:25;;;;;;;7.95;4.40;;;;;;;-4.35;99.13;98032.22;10530346;28;20048;-78
2023/03/11 22:28:27;;;;;;;8.35;5.43;;;;;;;-4.34;99.03;98028.47;10512207;28;20437;-78
2023/03/11 22:33:29;;;;;;;7.45;5.18;;;;;;;-4.35;98.82;98018.84;10514555;28;20045;-77
2023/03/11 22:38:32;;;;;;;10.88;6.03;;;;;;;-4.34;99.21;98012.44;10513224;28;20109;-78
2023/03/11 22:43:35;;;;;;;10.00;5.40;;;;;;;-4.38;99.25;98014.78;10536843;28;20049;-78
2023/03/11 22:48:38;;;;;;;7.72;5.97;;;;;;;-4.37;99.38;98010.25;10511901;28;20039;-78
2023/03/11 22:53:40;;;;;;;8.75;5.13;;;;;;;-4.38;99.20;98006.75;10530270;28;20505;-78
2023/03/11 22:58:43;;;;;;;9.02;5.90;;;;;;;-4.35;99.33;98010.81;10500342;28;20501;-78
2023/03/11 23:03:45;;;;;;;7.57;5.18;;;;;;;-4.32;99.39;98008.47;10508786;28;20048;-79
2023/03/11 23:08:47;;;;;;;9.48;5.78;;;;;;;-4.31;99.28;98004.72;10520766;28;20049;-78
2023/03/11 23:13:50;;;;;;;9.27;6.07;;;;;;;-4.28;99.25;97996.19;10520639;28;20418;-78
2023/03/11 23:18:53;;;;;;;7.80;5.25;;;;;;;-4.24;99.25;97991.13;10528120;28;20040;-77
2023/03/11 23:23:56;;;;;;;11.95;6.35;;;;;;;-4.20;99.38;97986.91;10520959;28;20049;-77
2023/03/11 23:28:59;;;;;;;10.50;6.15;;;;;;;-4.16;99.21;97974.66;10521409;28;20533;-77
2023/03/11 23:34:08;;;;;;;10.65;6.72;;;;;;;-4.11;99.28;97972.00;10491552;28;20071;-78